Date,TemperatureHighF,TemperatureAvgF,TemperatureLowF,DewpointHighF,DewpointAvgF,DewpointLowF,HumidityHigh,HumidityAvg,HumidityLow,PressureMaxIn,PressureMinIn,WindSpeedMaxMPH,WindSpeedAvgMPH,GustSpeedMaxMPH,PrecipitationSumIn
2013-1-1,74.6,60.0,47.5,60.4,54.8,46.9,99,85,58,30.23,30.02,13,1,0,0.05
2013-1-2,77.5,63.9,54.8,67.9,60.3,52.9,97,89,69,30.08,29.96,12,1,0,0.05
2013-1-3,61.4,57.4,49.4,60.4,56.1,48.5,98,95,87,30.25,30.05,9,1,0,0.14
2013-1-4,60.7,52.2,47.2,56.1,50.0,45.6,97,92,82,30.32,30.22,9,1,0,0.00
2013-1-5,63.6,52.8,42.5,55.7,49.1,41.0,96,88,72,30.34,30.24,10,1,0,0.05
2013-1-6,65.8,57.9,54.0,60.3,55.6,52.6,98,92,81,30.25,30.11,7,1,0,0.11
2013-1-7,64.3,55.8,47.0,56.7,52.0,45.0,97,87,72,30.28,30.17,10,2,0,0.00
2013-1-8,73.5,63.8,58.7,68.2,61.5,56.1,98,92,82,30.28,30.18,7,1,0,0.06
2013-1-9,75.0,67.0,61.8,71.3,65.6,61.2,99,95,85,30.34,30.23,6,1,0,0.00
2013-1-10,77.0,68.1,60.8,71.3,66.1,60.4,100,94,76,30.35,30.27,8,0,0,0.22
2013-1-11,81.0,67.0,57.8,69.5,63.3,57.5,100,89,54,30.28,30.17,10,1,0,0.00
2013-1-12,78.0,65.8,56.6,69.5,62.5,56.3,99,90,59,30.21,30.10,8,1,0,0.06
2013-1-13,78.5,65.3,55.2,67.9,61.6,54.8,99,89,58,30.18,30.08,9,1,0,0.00
2013-1-14,79.5,66.4,57.1,67.6,62.1,56.5,99,87,58,30.20,30.11,10,1,0,0.00
2013-1-15,78.9,68.1,58.4,69.2,64.2,57.8,99,88,64,30.16,30.06,11,1,0,0.06
2013-1-16,80.0,69.0,61.0,68.0,63.0,59.8,99,83,52,30.10,29.99,13,1,0,0.00
2013-1-17,77.1,59.5,43.4,65.7,54.3,34.7,99,84,67,30.15,29.89,20,3,0,0.07
2013-1-18,60.9,51.7,41.5,50.5,44.1,34.3,85,76,64,30.38,30.14,19,3,0,0.00
2013-1-19,61.9,55.6,52.1,55.9,51.2,48.3,90,85,78,30.37,30.31,12,2,0,0.01
2013-1-20,69.5,60.2,50.2,56.5,52.4,49.1,97,77,53,30.19,30.08,6,1,0,0.00
2013-1-23,60.6,49.6,43.4,42.8,40.3,33.9,90,73,37,30.31,30.28,7,0,0,0.00
2013-1-24,71.0,56.1,43.4,52.9,46.8,40.6,91,73,45,30.32,30.19,15,2,0,0.06
2013-1-25,73.3,59.4,51.1,59.8,52.4,44.6,97,81,38,30.32,30.16,9,1,0,0.00
2013-1-26,73.7,61.3,49.4,61.1,55.2,48.4,98,81,60,30.25,30.15,13,1,0,0.05
2013-1-27,69.0,60.8,55.7,61.8,57.9,54.3,98,91,73,30.37,30.22,11,1,0,0.11
2013-1-28,74.5,64.7,55.5,66.5,61.3,55.1,99,90,67,30.38,30.27,12,1,0,0.00
2013-1-29,71.3,63.1,56.4,67.4,61.6,55.8,99,95,86,30.27,30.10,11,2,0,0.05
2013-1-30,81.7,73.5,66.1,66.7,64.4,62.3,95,75,54,30.11,29.80,24,4,0,0.02
2013-1-31,72.4,52.8,43.4,65.3,38.8,25.1,94,62,29,30.25,29.87,18,3,0,0.15
2013-2-1,66.5,51.1,38.9,39.7,33.8,29.4,87,55,26,30.33,30.23,13,2,0,0.00
2013-2-2,62.7,48.2,38.0,46.4,39.4,31.8,96,73,48,30.35,30.16,7,1,0,0.03
2013-2-3,65.6,51.0,40.4,44.4,36.5,26.1,97,63,24,30.19,30.04,14,2,0,0.00
2013-2-4,63.9,50.9,39.2,48.5,43.2,35.2,96,77,37,30.14,30.06,6,0,0,0.00
2013-2-5,69.0,56.1,43.0,52.7,45.7,36.3,97,72,34,30.11,30.01,8,1,0,0.06
2013-2-6,66.0,60.3,55.6,58.9,56.2,51.8,96,87,72,30.16,30.05,6,0,0,0.01
2013-2-7,76.5,66.1,59.3,65.4,62.5,58.3,99,89,62,30.11,29.81,16,2,0,0.13
2013-2-8,69.5,62.8,54.4,65.3,56.2,51.9,92,80,61,30.10,29.83,15,3,0,0.00
2013-2-9,66.5,56.2,48.3,56.1,50.2,45.8,96,82,57,30.26,30.09,12,1,0,0.04
2013-2-10,72.1,63.2,53.3,60.1,55.9,50.4,92,78,58,30.31,30.17,19,3,0,0.00
2013-2-11,80.6,68.2,58.8,65.6,61.2,56.3,95,80,52,30.20,30.06,13,2,0,0.00
2013-2-12,80.4,68.9,59.1,68.0,64.1,58.1,97,86,58,30.08,29.89,15,1,0,0.06
2013-2-13,77.0,70.0,62.1,72.3,65.0,49.8,95,85,53,29.93,29.79,14,2,0,0.11
2013-2-14,63.3,54.0,48.3,55.4,50.4,46.3,96,88,72,30.08,29.91,9,2,0,0.12
2013-2-15,63.7,50.8,41.9,51.3,45.9,40.6,97,85,57,30.11,29.98,7,1,0,0.00
2013-2-16,59.1,48.6,41.0,48.7,42.2,24.3,98,80,51,30.14,29.91,22,2,0,0.08
2013-2-17,51.2,39.5,31.5,30.3,21.9,7.3,89,55,18,30.37,30.14,15,2,0,0.00
2013-2-18,60.2,44.3,28.3,44.2,35.5,26.3,95,75,43,30.42,30.23,10,1,0,0.00
2013-2-19,77.5,61.7,43.4,61.3,51.6,42.1,97,73,42,30.25,30.01,19,2,0,0.06
2013-2-20,62.7,54.5,47.5,59.0,43.6,31.1,95,69,34,30.18,30.07,8,1,0,0.00
2013-2-21,67.8,55.4,42.0,60.3,49.5,40.9,97,82,53,30.16,30.05,6,0,0,0.04
2013-2-22,80.3,69.1,56.9,69.5,64.6,56.3,99,87,65,30.09,29.99,16,2,0,0.00
2013-2-23,83.5,73.4,62.3,68.5,65.9,61.1,97,79,51,29.99,29.84,19,2,0,0.30
2013-2-24,71.5,63.2,59.0,64.3,59.6,50.2,98,89,53,30.00,29.85,5,1,0,0.13
2013-2-25,68.2,63.7,58.3,66.4,62.6,56.4,99,96,88,29.95,29.80,19,1,0,1.56
2013-2-26,79.0,69.0,59.8,70.1,63.9,54.8,99,85,51,29.83,29.68,18,3,0,0.42
2013-2-27,66.9,59.5,53.4,56.0,49.5,45.2,88,71,48,29.98,29.83,12,2,0,0.00
2013-2-28,70.5,59.0,47.5,47.5,42.8,33.0,88,58,36,29.98,29.84,19,3,0,0.04
2013-3-1,56.2,52.9,50.7,37.6,36.4,34.0,60,53,43,29.95,29.92,10,2,0,0.00
2013-3-6,60.1,51.6,44.2,34.6,31.1,26.8,64,47,29,30.14,29.94,26,5,0,0.05
2013-3-7,61.1,47.0,36.5,45.6,38.8,31.0,96,74,53,30.24,30.13,9,1,0,0.04
2013-3-8,66.0,50.9,39.4,50.9,44.0,38.3,98,80,41,30.24,30.16,10,1,0,0.00
2013-3-9,68.2,53.6,40.7,53.2,46.8,39.9,98,80,51,30.28,30.17,9,1,0,0.04
2013-3-10,74.0,60.2,47.8,60.5,52.8,46.9,98,79,51,30.22,30.14,16,1,0,0.00
2013-3-17,78.3,73.3,66.4,55.7,50.2,43.8,68,46,31,30.13,29.99,13,3,0,0.00
2013-3-18,79.2,71.4,63.9,64.1,62.0,57.7,92,74,50,29.93,29.86,12,1,0,0.02
2013-3-20,67.0,59.7,51.2,59.0,54.6,50.1,96,84,68,30.01,29.85,13,2,0,0.12
2013-3-21,51.2,50.5,49.4,50.4,49.6,48.6,97,97,96,29.89,29.87,4,1,0,0.00
2013-3-22,56.3,55.9,55.4,48.9,48.8,48.4,78,77,76,30.02,30.01,3,0,0,0.00
2013-3-23,70.8,63.2,54.8,67.0,61.9,53.5,99,96,84,29.93,29.81,13,1,0,1.77
2013-3-24,81.9,72.8,62.2,73.2,69.3,61.9,99,89,70,29.82,29.54,18,3,0,0.51
2013-3-26,54.3,46.6,41.3,34.5,30.7,26.3,76,55,34,30.25,30.12,13,2,0,0.02
2013-3-27,41.3,40.4,39.6,32.8,31.9,30.4,73,71,70,30.26,30.25,4,1,0,0.00
2013-3-29,49.3,48.7,48.1,46.2,46.0,45.6,93,90,88,30.26,30.25,0,0,0,0.00
2013-3-30,73.6,55.4,43.2,55.5,48.8,42.1,96,80,45,30.27,30.11,13,1,0,0.05
2013-3-31,82.9,78.3,55.7,55.8,52.7,46.4,78,42,35,30.15,29.97,13,4,0,0.00
2013-4-1,80.8,70.3,60.2,69.7,63.4,57.6,94,80,53,30.00,29.89,17,1,0,0.27
2013-4-2,69.5,61.8,56.5,60.8,56.8,49.5,96,85,49,30.09,29.97,5,0,0,0.06
2013-4-3,77.0,75.4,73.6,64.1,62.3,60.3,72,64,59,30.07,30.04,9,3,0,0.00
2013-4-4,71.2,68.3,66.9,64.6,63.9,63.3,89,86,79,29.90,29.86,3,0,0,0.35
2013-4-5,56.7,56.2,55.7,54.6,54.0,53.6,93,92,91,29.94,29.89,6,1,0,0.09
2013-4-6,67.8,60.3,50.6,58.1,54.8,49.5,97,83,69,30.14,30.08,12,2,0,0.04
2013-4-7,75.7,66.0,56.4,64.5,58.6,55.8,99,80,54,30.18,30.12,13,2,0,0.00
2013-4-8,73.5,68.0,63.7,63.7,62.6,61.4,93,83,70,30.14,30.11,4,0,0,0.00
2013-4-10,72.4,69.8,68.9,67.4,66.8,66.0,94,90,82,30.03,30.01,6,2,0,0.00
2013-4-11,79.3,72.6,68.9,71.1,69.0,67.1,96,89,75,30.01,29.82,21,4,0,0.07
2013-4-13,76.0,72.2,65.2,56.6,53.1,48.5,70,52,39,29.98,29.91,6,1,0,0.04
2013-4-14,78.0,64.1,54.0,67.1,60.3,53.3,99,88,63,30.02,29.89,12,1,0,0.16
2013-4-15,76.8,66.1,60.5,67.1,63.3,59.9,99,92,67,30.02,29.93,6,1,0,0.01
2013-4-16,78.6,74.2,69.1,69.4,67.6,66.3,91,80,72,30.17,30.16,8,2,0,0.04
2013-4-17,70.5,68.1,67.0,66.9,66.2,65.8,97,94,88,30.12,30.10,3,0,0,0.00
2013-4-18,81.7,72.1,62.5,72.2,67.1,61.8,99,85,60,30.10,29.98,11,2,0,0.05
2013-4-19,89.0,76.8,70.6,74.5,70.8,68.2,95,83,52,30.01,29.88,14,2,14,0.04
2013-4-20,74.3,57.2,51.8,70.5,54.6,48.5,96,91,81,30.20,29.97,13,2,13,0.29
2013-4-21,67.8,63.8,57.5,64.2,60.3,54.6,96,89,80,30.19,30.09,13,2,13,0.15
2013-4-22,65.7,63.2,60.9,64.8,61.3,57.4,97,94,85,30.14,30.04,15,3,15,0.25
2013-4-23,71.5,63.1,54.4,61.7,57.7,53.5,97,83,68,30.17,30.06,14,1,14,0.04
2013-4-24,79.0,65.8,52.6,66.4,59.6,52.1,99,82,58,30.17,30.10,10,1,0,0.00
2013-4-25,84.3,70.0,57.9,69.9,63.6,57.3,99,82,47,30.21,30.11,9,1,0,0.04
2013-4-26,79.3,69.7,62.6,69.4,64.1,58.6,95,83,67,30.29,30.16,14,1,14,0.00
2013-4-27,79.5,69.3,59.3,67.5,62.0,58.5,99,80,52,30.27,30.16,11,1,0,0.05
2013-4-28,79.0,71.3,64.8,68.7,65.3,62.9,97,82,60,30.17,30.01,15,2,17,0.01
2013-4-29,84.2,71.2,63.6,69.9,65.3,62.6,98,83,53,30.03,29.92,11,1,0,0.08
2013-4-30,81.0,69.1,62.2,72.9,65.6,61.6,99,90,61,30.04,29.94,8,1,0,0.09
2013-5-1,77.2,68.9,62.1,71.5,66.2,61.4,99,92,80,30.07,29.97,16,2,16,0.00
2013-5-2,69.3,67.8,66.1,69.0,67.0,64.9,99,98,92,30.03,29.90,14,1,14,4.51
2013-5-3,68.5,66.6,64.9,67.1,65.3,63.6,98,96,88,29.91,29.82,15,2,15,1.93
2013-5-4,70.5,68.1,64.4,69.7,67.0,63.2,98,96,89,29.84,29.69,13,2,13,1.22
2013-5-5,76.8,67.4,60.2,69.7,58.6,48.8,99,77,39,29.90,29.71,15,3,15,0.00
2013-5-6,73.7,64.0,55.9,57.0,51.4,45.1,96,67,39,29.99,29.86,12,2,0,0.00
2013-5-7,76.8,64.9,54.1,61.8,55.9,50.6,94,74,52,30.03,29.91,16,1,16,0.06
2013-5-8,81.8,68.1,56.9,64.9,58.7,54.9,98,75,41,30.11,30.00,11,1,0,0.00
2013-5-9,82.0,70.4,60.5,68.2,61.9,57.0,98,77,45,30.14,30.07,10,2,0,0.06
2013-5-10,83.8,72.2,59.5,70.3,64.9,58.6,98,80,51,30.14,30.00,13,2,13,0.00
2013-5-11,88.2,73.5,67.1,73.2,68.7,65.9,97,86,57,30.06,29.92,20,1,20,1.19
2013-5-12,85.5,74.0,65.8,70.8,66.3,62.4,98,79,50,30.03,29.93,14,2,14,0.01
2013-5-13,79.1,68.4,56.7,63.5,52.8,38.3,96,62,25,30.15,30.00,14,2,14,0.00
2013-5-14,76.7,64.5,52.7,57.6,52.3,45.3,96,68,37,30.25,30.15,9,1,0,0.05
2013-5-15,81.7,67.7,54.3,63.3,56.7,49.7,97,72,36,30.24,30.09,10,1,0,0.00
2013-5-16,82.8,71.3,58.6,70.0,64.0,57.6,97,79,52,30.13,30.04,11,2,0,0.05
2013-5-17,82.7,72.2,60.7,70.1,65.7,59.8,98,82,50,30.12,30.04,10,1,0,0.00
2013-5-18,83.2,74.2,63.7,73.4,69.1,63.1,99,85,61,30.14,30.03,14,2,14,0.79
2013-5-19,83.8,74.7,67.6,75.4,70.6,66.7,98,88,70,30.10,30.01,16,2,16,0.02
2013-5-20,81.3,74.0,68.7,75.6,71.3,67.8,98,92,77,30.11,30.02,7,1,0,0.72
2013-5-21,81.3,73.3,67.3,76.5,70.5,67.0,99,91,74,30.06,29.96,13,1,13,0.42
2013-5-22,81.8,72.3,65.7,77.2,70.2,65.3,99,94,74,30.01,29.91,7,0,0,0.28
2013-5-23,87.8,75.6,67.6,74.1,70.4,67.3,99,85,54,29.98,29.90,9,1,0,0.06
2013-5-24,89.8,77.4,67.3,71.6,66.1,52.8,98,73,32,30.11,29.94,15,2,15,0.00
2013-5-25,80.3,70.7,60.2,66.3,59.9,53.6,98,72,43,30.25,30.10,11,1,0,0.04
2013-5-26,80.7,68.7,56.9,64.2,58.3,50.8,98,73,40,30.24,30.16,7,1,0,0.00
2013-5-27,81.3,70.5,58.0,68.6,63.0,57.2,98,79,59,30.22,30.14,17,1,17,0.00
2013-5-28,82.3,75.0,65.4,70.5,67.0,63.2,94,77,63,30.19,30.13,14,2,14,0.03
2013-5-29,83.5,76.7,70.3,75.6,72.0,68.5,96,86,72,30.18,30.10,14,2,14,0.00
2013-5-30,84.3,77.0,70.4,77.1,73.1,69.8,98,88,75,30.18,30.10,13,2,13,0.25
2013-5-31,83.6,77.4,71.0,74.1,71.8,69.4,95,83,71,30.17,30.09,14,2,14,0.00
2013-6-1,83.3,77.7,72.4,74.6,72.4,70.2,94,84,70,30.11,30.03,14,2,14,0.03
2013-6-2,84.2,77.7,72.0,76.8,74.2,71.2,99,89,76,30.06,29.89,12,2,12,0.00
2013-6-3,90.2,76.8,70.7,77.6,73.2,69.8,99,90,59,29.97,29.86,11,1,0,0.62
2013-6-4,86.5,75.8,70.7,78.3,73.5,70.2,99,93,73,30.02,29.93,10,1,0,0.04
2013-6-5,81.8,74.0,71.2,75.5,72.2,70.4,99,94,75,30.03,29.93,7,1,0,0.15
2013-6-6,78.3,74.0,71.3,76.1,72.8,70.7,99,96,86,29.94,29.59,25,3,25,1.31
2013-6-7,88.8,79.0,71.0,75.4,72.0,69.0,96,80,59,29.93,29.60,20,2,20,0.00
2013-6-8,89.0,78.6,72.1,79.0,73.5,69.7,98,85,57,30.08,29.92,11,1,0,0.05
2013-6-9,86.6,77.1,71.0,77.9,73.7,70.4,98,90,72,30.13,30.04,13,2,15,0.01
2013-6-10,89.4,78.8,72.2,78.4,74.4,71.6,99,87,64,30.11,30.00,12,2,12,0.08
2013-6-11,91.7,80.1,72.7,78.8,74.0,71.0,98,83,54,30.09,29.99,11,1,0,0.04
2013-6-12,95.3,82.0,71.7,79.1,73.6,70.2,98,78,46,30.07,29.96,9,1,0,0.00
2013-6-13,95.3,83.9,75.0,79.6,75.4,70.9,97,77,49,30.00,29.85,11,1,0,0.06
2013-6-14,89.5,78.7,70.9,79.7,74.6,67.2,98,88,70,29.94,29.79,21,2,21,0.31
2013-6-15,85.0,78.3,71.6,74.6,70.8,68.3,98,79,62,30.10,29.94,11,2,0,0.03
2013-6-16,85.5,78.9,71.8,76.2,72.0,68.8,93,80,67,30.13,30.05,9,2,0,0.00
2013-6-17,89.0,80.2,74.5,80.2,75.8,72.5,98,87,67,30.09,29.96,12,1,0,0.16
2013-6-18,93.0,81.5,71.7,78.2,73.3,70.3,98,79,49,30.04,29.91,13,1,13,0.05
2013-6-19,92.2,80.7,72.2,78.2,73.9,70.9,98,81,52,30.04,29.92,12,2,12,0.00
2013-6-20,86.8,77.2,72.5,79.7,74.1,70.8,97,91,65,30.10,29.98,8,1,0,0.15
2013-6-21,83.7,76.4,71.3,78.8,73.9,70.7,99,92,74,30.14,30.05,6,0,0,0.43
2013-6-22,85.6,75.8,71.2,77.4,73.9,70.9,99,94,70,30.14,30.08,10,1,0,0.22
2013-6-23,87.2,78.6,70.5,79.1,74.1,70.2,99,87,65,30.16,30.08,10,1,0,0.00
2013-6-24,87.5,79.1,71.6,78.1,74.5,71.0,99,87,67,30.20,30.10,10,2,0,0.00
2013-6-25,88.7,79.6,71.4,77.3,74.1,70.8,99,84,60,30.18,30.05,11,1,0,0.05
2013-6-26,90.8,78.4,71.3,79.0,74.2,70.1,99,88,53,30.09,30.00,8,1,0,0.00
2013-6-27,92.7,80.5,70.1,79.2,74.6,69.2,98,83,57,30.04,29.89,11,2,0,0.04
2013-6-28,93.2,80.8,75.4,79.0,75.1,72.5,97,84,56,29.94,29.79,16,2,17,0.00
2013-6-29,87.8,80.1,75.3,77.3,74.3,71.8,95,83,64,29.82,29.75,13,2,13,0.04
2013-6-30,90.6,77.4,72.7,80.3,74.3,70.5,98,91,63,29.87,29.78,21,2,21,0.62
2013-7-1,84.0,75.0,71.7,77.8,73.0,70.5,99,94,79,30.03,29.84,13,2,13,1.72
2013-7-2,84.8,74.7,71.3,79.4,73.2,70.9,99,95,79,30.11,29.99,13,2,13,0.56
2013-7-3,86.5,77.0,70.2,79.6,74.4,69.8,100,92,76,30.15,30.07,16,2,18,0.08
2013-7-4,86.3,78.5,71.5,78.4,74.4,69.0,98,87,76,30.18,30.10,22,4,22,0.02
2013-7-5,86.4,78.3,70.8,79.3,74.2,69.2,99,88,73,30.18,30.11,14,2,17,0.00
2013-7-6,86.9,79.0,71.9,78.9,74.9,71.3,99,88,72,30.16,30.08,15,2,15,0.01
2013-7-7,86.5,78.8,71.0,78.5,74.5,70.6,99,88,68,30.16,30.09,12,1,0,0.00
2013-7-8,86.8,78.8,71.3,79.1,74.8,70.9,99,88,70,30.19,30.11,8,1,0,0.00
2013-7-9,87.0,78.5,71.5,77.9,73.7,71.2,99,86,66,30.19,30.09,11,1,0,0.05
2013-7-10,87.5,78.4,69.1,78.2,73.3,68.8,99,86,64,30.11,29.98,12,2,12,0.00
2013-7-11,90.5,78.9,71.7,77.9,73.6,69.7,98,85,57,30.03,29.89,13,2,14,0.10
2013-7-12,89.7,76.0,70.4,78.0,73.2,68.7,99,92,57,29.95,29.88,9,1,0,1.19
2013-7-13,85.8,75.8,70.6,79.3,73.4,70.0,99,93,77,30.01,29.90,10,1,0,0.49
2013-7-14,82.8,75.2,70.6,76.0,72.8,70.2,99,92,74,30.13,29.99,12,1,0,0.01
2013-7-15,86.0,76.6,70.3,80.7,74.7,70.0,99,94,79,30.17,30.09,13,1,13,0.35
2013-7-16,86.8,79.4,73.8,80.3,76.2,73.5,99,90,74,30.20,30.14,11,1,0,0.06
2013-7-17,86.8,79.5,73.4,79.1,75.3,73.1,99,88,70,30.21,30.10,9,1,0,0.01
2013-7-18,86.6,78.6,71.0,77.6,74.1,70.4,99,87,67,30.14,30.05,8,1,0,0.06
2013-7-19,90.5,78.4,71.1,77.3,73.0,70.0,98,85,59,30.13,30.04,11,1,0,0.00
2013-7-20,90.1,76.6,71.4,79.0,72.7,70.0,98,88,63,30.11,30.01,17,1,17,0.04
2013-7-21,91.7,77.2,71.8,78.3,73.8,70.7,97,90,61,30.11,30.02,12,1,13,0.30
2013-7-22,91.3,77.9,73.4,78.2,74.6,71.7,98,90,60,30.13,30.02,20,1,20,0.50
2013-7-23,89.6,78.1,72.7,79.5,74.4,71.8,98,89,68,30.04,29.92,13,2,13,0.07
2013-7-24,86.6,77.9,72.9,78.9,74.4,71.2,97,89,72,29.93,29.82,16,2,16,0.20
2013-7-25,89.5,80.1,72.6,77.8,74.7,71.7,98,85,63,29.96,29.83,10,1,0,0.07
2013-7-26,88.3,80.1,73.0,80.3,76.1,72.3,99,88,70,30.02,29.93,8,1,0,0.00
2013-7-27,88.2,79.3,73.2,79.7,75.4,71.4,99,88,69,30.01,29.88,9,1,0,0.05
2013-7-28,87.5,77.9,72.3,79.8,74.7,71.4,98,90,67,30.05,29.92,7,1,0,0.02
2013-7-29,87.8,78.8,70.7,79.8,74.2,70.1,99,87,69,30.15,30.02,11,1,0,0.00
2013-7-30,90.2,80.5,73.3,81.4,75.9,72.7,98,87,68,30.18,30.09,9,1,0,0.03
2013-7-31,88.3,77.1,71.7,80.3,74.8,71.1,99,93,72,30.13,30.03,11,1,0,0.32
2013-8-1,89.6,75.1,70.2,80.0,73.1,69.6,99,94,73,30.05,29.95,11,1,17,1.53
2013-8-2,88.3,78.5,70.2,80.1,74.4,69.9,99,88,64,30.04,29.94,10,1,0,0.01
2013-8-3,92.8,79.6,72.7,79.4,75.9,72.4,99,90,59,30.06,29.98,9,1,0,0.25
2013-8-4,94.1,82.8,75.6,79.9,76.9,72.7,98,84,53,30.05,29.93,11,1,0,0.00
2013-8-5,92.1,82.5,76.9,83.6,78.0,76.0,98,87,64,30.00,29.91,7,1,0,0.00
2013-8-6,88.5,81.3,75.8,80.6,77.6,75.2,99,89,74,30.00,29.90,9,1,0,0.04
2013-8-7,87.0,80.6,76.6,79.9,76.9,75.2,97,89,74,30.01,29.94,6,1,0,0.00
2013-8-8,88.7,80.2,74.3,80.2,76.7,73.2,98,90,72,30.06,29.96,13,2,13,0.15
2013-8-9,88.7,80.6,74.3,79.7,76.5,73.7,98,88,70,30.09,29.98,9,1,0,0.00
2013-8-10,89.6,80.8,72.9,80.4,76.4,72.3,98,87,68,30.14,30.06,11,1,0,0.07
2013-8-11,90.5,81.2,74.1,81.0,76.2,73.5,98,86,65,30.17,30.07,9,1,0,0.00
2013-8-12,92.7,82.2,74.7,80.7,76.2,73.5,97,83,62,30.13,29.99,9,1,0,0.00
2013-8-13,94.4,82.5,73.7,80.7,76.4,72.7,97,83,56,30.04,29.90,8,1,0,0.00
2013-8-14,94.8,81.1,72.9,80.5,75.8,70.7,98,85,57,29.99,29.86,26,2,26,0.32
2013-8-15,90.8,78.2,72.5,80.1,74.7,71.6,98,90,61,30.04,29.92,11,1,0,0.20
2013-8-16,90.0,77.1,71.2,78.8,74.2,70.6,98,91,63,30.06,29.95,16,1,16,0.16
2013-8-17,86.5,78.4,73.7,79.5,76.0,72.8,99,93,74,30.11,30.00,10,1,0,0.27
2013-8-18,88.2,79.9,73.7,81.7,76.9,73.0,99,91,72,30.13,30.05,10,1,0,0.01
2013-8-19,88.3,80.2,74.7,80.5,76.9,74.0,99,90,68,30.11,29.99,11,1,0,0.24
2013-8-20,89.5,80.7,73.7,81.2,76.5,73.1,99,88,67,30.12,30.02,10,1,0,0.05
2013-8-21,87.3,79.4,75.1,80.1,77.0,74.5,98,93,75,30.17,30.07,7,0,0,0.11
2013-8-22,85.8,76.6,70.9,81.2,75.4,69.5,98,96,86,30.17,30.02,14,1,14,1.62
2013-8-23,86.1,76.6,72.9,80.0,75.2,72.5,99,96,79,30.05,29.99,6,0,0,0.13
2013-8-24,83.5,77.3,73.3,79.5,75.7,73.0,99,95,86,30.14,30.01,6,0,0,0.05
2013-8-25,83.2,76.6,72.7,78.5,74.7,72.2,99,94,81,30.19,30.11,10,1,0,0.32
2013-8-26,80.4,75.6,72.7,75.8,73.3,71.1,97,93,86,30.11,30.07,10,1,0,0.04
2013-8-27,86.0,77.6,71.5,76.4,72.5,70.7,98,86,63,30.10,30.01,7,0,0,0.05
2013-8-28,87.2,76.8,68.2,74.5,70.4,67.5,98,82,59,30.06,29.98,8,1,0,0.01
2013-8-29,92.5,80.5,70.7,77.6,71.8,66.8,97,77,44,30.03,29.91,12,1,12,0.04
2013-8-30,94.2,81.6,73.5,79.6,74.7,71.2,97,81,51,29.97,29.86,8,1,0,0.00
2013-8-31,90.2,79.3,72.4,79.7,74.9,71.8,98,87,65,29.96,29.87,12,1,12,0.04
2013-9-1,92.2,79.2,71.9,79.6,74.1,70.7,98,86,55,29.98,29.88,12,2,0,0.64
2013-9-2,92.2,79.0,71.7,78.5,74.0,71.1,98,86,54,30.00,29.88,14,1,14,0.28
2013-9-3,90.8,79.8,73.1,78.8,75.0,72.5,98,86,62,30.00,29.90,11,1,0,0.05
2013-9-4,92.6,79.8,72.7,81.1,74.3,70.6,98,85,50,30.08,29.97,11,1,0,0.00
2013-9-5,93.0,80.5,72.8,79.4,75.1,70.7,98,85,59,30.10,30.00,9,1,0,0.04
2013-9-6,88.3,77.8,72.3,79.3,74.0,71.2,97,89,69,30.06,29.99,10,1,0,0.00
2013-9-7,87.5,78.0,71.0,76.7,72.6,70.1,98,84,61,30.04,29.95,11,1,0,0.02
2013-9-8,86.7,76.5,68.0,73.6,70.1,67.4,98,82,57,29.99,29.92,12,1,12,0.00
2013-9-9,86.8,76.4,67.9,76.4,70.7,67.2,98,84,62,30.07,29.96,10,0,0,0.00
2013-9-10,87.6,78.5,70.1,76.6,71.9,68.7,97,81,63,30.14,30.04,10,1,0,0.07
2013-9-11,87.0,77.4,70.1,78.4,73.2,69.2,98,88,68,30.12,30.03,8,0,0,0.00
2013-9-12,85.2,75.9,70.4,78.1,73.0,69.4,98,91,71,30.05,29.90,7,0,0,0.15
2013-9-13,92.3,79.5,70.6,77.0,72.1,65.2,98,80,43,29.92,29.78,7,1,0,0.01
2013-9-14,93.0,79.0,71.6,78.3,73.2,67.8,97,84,48,30.00,29.82,9,1,0,1.33
2013-9-15,88.0,78.9,70.8,80.3,75.1,70.2,99,89,70,30.09,29.98,8,1,0,0.01
2013-9-16,88.0,79.4,71.9,78.7,74.7,71.0,98,86,67,30.09,30.00,9,1,0,0.00
2013-9-17,86.8,78.2,71.7,78.3,74.2,71.1,98,88,71,30.10,30.01,11,1,0,0.08
2013-9-18,80.3,75.8,73.5,76.5,72.8,70.6,97,91,82,30.08,30.02,11,1,0,1.08
2013-9-19,85.5,77.2,71.0,77.8,72.1,68.7,97,85,73,30.08,30.01,11,0,0,0.06
2013-9-20,84.3,75.3,68.2,76.0,70.5,67.3,97,86,66,30.05,29.93,9,0,0,0.00
2013-9-21,85.3,75.8,67.2,74.4,70.4,66.5,98,84,60,29.95,29.76,10,1,0,0.02
2013-9-22,81.6,75.3,71.7,76.9,72.7,70.3,97,92,81,29.85,29.74,12,1,13,0.20
2013-9-23,81.0,74.7,71.2,77.2,73.1,70.5,98,95,88,29.97,29.83,6,0,0,0.03
2013-9-24,81.8,75.0,72.2,78.2,73.8,71.2,98,96,87,29.96,29.82,6,0,0,0.34
2013-9-25,83.2,76.5,72.6,75.9,73.9,71.8,98,92,77,29.83,29.74,15,1,15,0.01
2013-9-26,79.1,73.9,69.2,76.0,71.8,67.7,98,93,81,29.90,29.74,9,1,0,0.09
2013-9-27,82.5,73.1,68.1,74.4,70.2,67.1,97,91,75,30.00,29.87,11,2,0,0.17
2013-9-28,77.8,73.3,70.7,73.2,70.7,68.7,97,92,80,30.07,29.96,11,1,0,0.36
2013-10-3,73.7,72.4,71.3,72.5,71.4,70.4,97,97,96,30.08,30.06,0,0,0,0.04
2013-10-4,76.5,70.1,68.1,75.5,69.5,67.5,98,98,97,30.09,30.03,1,0,0,0.01
2013-10-10,79.1,70.4,61.9,69.3,65.2,61.3,98,85,64,30.07,29.98,8,1,0,0.04
2013-10-11,83.5,70.3,61.7,69.7,63.5,60.1,99,82,47,30.05,29.94,9,1,0,0.01
2013-10-12,84.5,71.4,63.4,68.7,63.7,57.5,97,80,44,30.04,29.96,9,1,0,0.04
2013-10-13,84.8,71.4,61.9,70.1,64.8,60.9,97,82,47,30.09,30.01,7,1,0,0.01
2013-10-14,76.3,69.4,64.3,72.9,67.4,63.1,98,93,82,30.07,29.99,11,1,0,0.11
2013-10-15,73.7,70.4,68.1,71.5,68.8,66.9,98,95,91,30.01,29.93,12,2,12,0.58
2013-10-16,81.3,72.8,66.8,74.4,69.8,65.9,98,91,76,29.99,29.93,9,0,0,0.01
2013-10-17,83.8,72.8,65.4,76.7,69.1,64.8,99,89,64,29.99,29.90,6,0,0,0.04
2013-10-18,87.5,75.2,66.6,75.9,71.2,66.0,98,88,60,30.00,29.91,10,1,0,0.00
2013-10-19,88.2,77.1,71.1,76.5,72.8,70.2,98,88,60,29.95,29.86,9,1,0,0.09
2013-10-20,77.8,71.3,66.4,71.6,67.7,65.2,98,89,71,30.00,29.88,8,1,0,0.01
2013-10-21,81.5,72.9,66.0,76.2,71.0,65.1,98,94,82,30.03,29.94,7,0,0,0.03
2013-10-22,80.7,73.9,71.4,76.7,72.7,70.5,98,96,87,29.97,29.81,10,0,0,0.46
2013-10-23,75.2,67.0,56.3,70.8,60.3,51.6,98,82,46,30.03,29.81,12,2,12,0.01
2013-10-24,70.1,59.0,52.9,57.7,51.8,45.5,97,78,60,30.18,30.03,8,1,0,0.01
2013-10-25,74.0,60.3,52.1,59.0,53.5,49.9,98,80,50,30.27,30.17,9,1,0,0.01
2013-10-26,71.8,59.2,49.6,59.8,53.9,48.5,97,84,60,30.25,30.13,8,1,0,0.02
2013-10-27,72.0,58.5,48.2,55.6,51.7,47.3,97,81,46,30.17,30.10,7,0,0,0.01
2013-10-28,76.3,62.4,51.5,65.8,58.1,50.6,98,87,64,30.23,30.12,10,0,0,0.00
2013-10-29,77.0,66.0,56.9,68.7,61.8,56.1,98,87,72,30.28,30.19,10,1,0,0.05
2013-11-4,67.1,66.1,65.0,65.8,64.8,63.3,96,95,94,30.26,30.22,10,2,0,0.13
2013-11-5,75.0,68.7,65.2,70.2,66.5,63.6,97,93,83,30.25,30.17,17,2,17,0.03
2013-11-6,78.2,70.6,63.9,71.2,67.2,62.8,98,90,72,30.18,30.07,8,1,0,0.01
2013-11-7,79.4,69.7,64.6,70.4,66.6,63.4,97,90,64,30.08,29.97,7,1,0,0.02
2013-11-8,68.9,61.8,52.3,65.8,55.1,46.6,90,79,68,30.20,30.02,17,2,17,0.00
2013-11-9,75.5,66.3,59.1,64.3,60.4,55.6,97,82,60,30.24,30.16,8,1,0,0.04
2013-11-10,74.8,65.3,57.8,68.2,62.4,56.9,98,91,64,30.22,30.13,11,1,0,0.00
2013-11-11,75.3,65.5,57.6,65.0,61.1,56.6,98,87,62,30.20,30.11,6,0,0,0.01
2013-11-12,76.2,66.3,60.5,67.4,62.3,50.1,97,88,68,30.14,30.02,11,1,0,0.05
2013-11-13,60.7,53.4,50.4,50.1,46.2,42.8,87,77,68,30.41,30.14,18,3,18,0.00
2013-11-14,71.0,58.7,46.3,60.4,53.8,44.1,97,85,56,30.37,30.22,10,1,0,0.03
2013-11-15,68.0,61.7,53.7,66.0,60.7,52.9,98,97,90,30.24,30.06,7,0,0,0.12
2013-11-16,75.0,67.2,61.3,69.9,65.4,60.6,98,94,81,30.18,30.10,8,1,0,0.06
2013-11-17,76.7,70.5,65.5,72.7,69.0,64.9,98,95,86,30.11,30.00,6,0,0,0.16
2013-11-18,80.8,71.8,66.7,75.4,70.4,66.0,98,95,82,30.03,29.90,9,1,0,0.45
2013-11-19,71.0,64.4,55.2,69.7,59.0,48.3,98,83,72,30.04,29.90,12,2,14,0.04
2013-11-20,71.2,66.2,63.7,67.7,64.3,60.6,98,94,88,30.18,30.01,10,1,0,0.16
2013-11-21,76.0,68.1,64.7,71.1,66.3,64.1,98,94,81,30.25,30.15,8,1,0,0.06
2013-11-22,77.8,67.8,61.1,71.4,65.3,60.2,98,92,73,30.25,30.13,8,0,0,0.01
2013-11-23,80.0,68.0,58.4,70.3,64.4,57.8,99,89,61,30.14,30.01,9,0,0,0.05
2013-11-24,66.3,57.9,52.6,62.6,51.1,44.6,91,78,65,30.34,30.07,17,2,17,0.00
2013-11-25,71.8,63.9,54.5,61.1,56.6,48.3,86,77,56,30.32,30.11,10,2,0,0.00
2013-11-26,75.6,70.0,66.0,72.8,67.8,60.2,97,93,80,30.11,29.70,14,2,14,0.90
2013-11-27,71.6,55.6,39.6,70.7,51.1,33.9,97,85,71,30.22,29.62,21,4,21,0.42
2013-11-28,58.0,44.7,33.5,47.9,39.4,29.8,94,82,64,30.41,30.22,14,2,14,0.02
2013-11-29,63.9,53.8,42.7,57.1,49.9,41.1,97,87,72,30.43,30.37,13,2,13,0.00
2013-11-30,60.6,58.7,55.9,59.5,57.1,53.1,96,94,89,30.38,30.23,11,2,0,0.03
2013-12-1,62.5,59.0,57.3,60.1,57.4,55.9,96,94,92,30.23,30.17,10,2,0,0.00
2013-12-2,54.4,52.8,50.5,53.6,52.0,49.6,97,97,96,29.91,29.87,0,0,0,0.00
2013-12-3,73.5,59.1,48.3,62.4,56.0,47.8,99,90,64,29.98,29.89,8,1,0,0.06
2013-12-4,79.5,65.7,56.1,69.2,62.4,55.3,98,90,64,30.11,29.96,7,1,0,0.01
2013-12-5,82.2,68.4,55.8,71.3,64.0,55.2,99,87,61,30.18,30.08,10,1,0,0.06
2013-12-6,82.5,70.0,61.1,73.2,66.2,60.2,98,89,64,30.17,30.09,11,1,0,0.00
2013-12-7,81.9,70.8,63.7,72.0,67.1,62.8,98,89,65,30.23,30.14,9,1,0,0.04
2013-12-8,71.5,65.0,60.3,68.0,63.8,59.6,98,96,88,30.26,30.14,6,0,0,0.00
2013-12-9,82.0,69.3,59.2,72.2,65.8,58.6,99,90,65,30.19,30.07,12,1,12,0.01
2013-12-11,66.2,61.3,55.3,61.9,57.7,52.4,92,88,84,30.29,30.21,12,2,12,0.00
2013-12-12,63.6,54.7,45.2,52.4,43.7,29.4,93,69,29,30.37,30.24,10,1,0,0.03
2013-12-13,66.1,54.2,44.1,58.2,50.8,42.6,97,89,70,30.33,30.14,11,1,0,0.01
2013-12-14,76.4,65.7,52.5,69.6,63.5,51.7,98,93,78,30.15,29.89,11,1,14,0.74
2013-12-15,66.1,62.4,58.2,65.5,61.6,57.1,98,97,96,30.02,29.85,15,1,15,0.92
2013-12-16,56.8,47.7,41.9,48.0,43.9,40.9,97,88,61,30.25,30.18,6,0,0,0.00
2013-12-17,64.7,49.5,40.1,50.1,43.5,39.3,97,83,41,30.29,30.17,8,0,0,0.06
2013-12-18,63.0,49.3,40.6,45.2,39.4,22.9,96,74,22,30.31,30.20,13,1,13,0.00
2013-12-19,68.6,52.6,39.4,59.8,49.4,38.6,98,90,70,30.31,30.21,6,0,0,0.05
2013-12-20,73.7,59.2,47.9,65.6,56.4,47.4,98,91,69,30.23,30.15,5,0,0,0.01
2013-12-21,79.8,68.0,54.2,71.4,64.5,53.6,99,89,69,30.15,30.04,18,2,18,0.06
2013-12-22,82.5,73.5,66.2,72.3,69.5,65.0,97,88,66,30.14,30.06,14,2,15,0.00
2013-12-23,82.3,73.1,66.2,72.4,69.2,65.0,97,88,67,30.16,30.05,14,1,14,0.00
2013-12-24,71.9,55.3,43.9,69.7,45.6,33.6,94,72,35,30.31,30.10,20,2,20,0.02
2013-12-25,65.7,52.7,41.6,58.5,48.8,35.8,94,87,74,30.30,30.23,13,2,14,0.00
2013-12-26,61.7,55.5,52.3,56.3,52.7,48.8,97,91,79,30.28,30.17,10,2,0,0.04
2013-12-27,64.1,58.3,54.6,59.6,56.0,52.6,95,92,85,30.32,30.21,9,2,0,0.01
2013-12-28,69.9,67.7,66.6,67.2,65.7,64.8,96,93,90,30.09,29.99,8,3,13,0.10
2013-12-29,73.4,68.9,58.5,70.8,66.8,57.7,98,93,87,30.01,29.88,10,2,13,0.32
2013-12-30,65.5,55.6,48.5,57.6,50.5,46.3,97,85,53,30.20,30.00,6,1,0,0.00
2013-12-31,64.3,55.7,51.9,53.2,51.4,49.6,97,86,63,30.33,30.19,7,0,0,0.06
2014-1-1,61.1,57.0,53.2,59.7,55.9,50.8,98,96,91,30.31,30.08,5,0,0,0.80
2014-1-2,64.5,60.1,55.1,63.5,59.2,50.6,98,97,86,30.08,29.76,21,1,21,0.94